createdAt,value
2018-11-07T00:00:02.690Z,81.46
2018-11-07T00:01:02.696Z,80.75
2018-11-07T00:02:02.669Z,80.30
2018-11-07T00:03:02.707Z,79.80
2018-11-07T00:04:02.637Z,80.00
2018-11-07T00:05:02.628Z,79.49
2018-11-07T00:06:02.636Z,79.49
2018-11-07T00:07:02.602Z,79.49
2018-11-07T00:08:02.754Z,79.49
2018-11-07T00:09:02.578Z,80.10
2018-11-07T00:10:02.566Z,80.00
2018-11-07T00:11:02.553Z,80.10
2018-11-07T00:12:02.560Z,80.41
2018-11-07T00:13:02.539Z,79.80
2018-11-07T00:14:02.573Z,79.49
2018-11-07T00:15:02.505Z,79.49
2018-11-07T00:16:02.494Z,79.80
2018-11-07T00:17:02.498Z,79.08
2018-11-07T00:18:02.466Z,78.94
2018-11-07T00:19:02.456Z,79.28
2018-11-07T00:20:02.444Z,79.08
2018-11-07T00:21:02.433Z,80.10
2018-11-07T00:22:02.438Z,79.75
2018-11-07T00:23:02.408Z,80.10
2018-11-07T00:24:02.395Z,79.39
2018-11-07T00:25:02.384Z,79.39
2018-11-07T00:26:02.372Z,79.39
2018-11-07T00:27:02.385Z,79.59
2018-11-07T00:28:02.353Z,79.80
2018-11-07T00:29:02.335Z,79.83
2018-11-07T00:30:02.333Z,79.32
2018-11-07T00:31:02.312Z,79.49
2018-11-07T00:32:02.302Z,79.52
2018-11-07T00:33:02.307Z,79.63
2018-11-07T00:34:02.278Z,79.83
2018-11-07T00:35:02.338Z,80.07
2018-11-07T00:36:02.250Z,80.34
2018-11-07T00:37:02.243Z,80.48
2018-11-07T00:38:02.248Z,80.34
2018-11-07T00:39:02.215Z,80.24
2018-11-07T00:40:02.204Z,80.34
2018-11-07T00:41:02.192Z,80.24
2018-11-07T00:42:02.182Z,80.04
2018-11-07T00:43:02.186Z,80.14
2018-11-07T00:44:02.158Z,79.83
2018-11-07T00:45:02.150Z,80.44
2018-11-07T00:46:02.134Z,79.83
2018-11-07T00:47:02.121Z,80.24
2018-11-07T00:48:02.137Z,80.24
2018-11-07T00:49:02.096Z,79.77
2018-11-07T00:50:02.085Z,80.04
2018-11-07T00:51:02.072Z,79.83
2018-11-07T00:52:02.060Z,79.52
2018-11-07T00:53:02.050Z,79.63
2018-11-07T00:54:02.055Z,79.43
2018-11-07T00:55:02.028Z,80.14
2018-11-07T00:56:02.012Z,80.14
2018-11-07T00:57:02.000Z,79.22
2018-11-07T00:58:02.047Z,79.32
2018-11-07T00:59:02.008Z,79.12
2018-11-07T01:00:01.965Z,78.91
2018-11-07T01:01:01.954Z,78.61
2018-11-07T01:02:01.939Z,78.61
2018-11-07T01:03:01.926Z,78.91
2018-11-07T01:04:01.918Z,78.50
2018-11-07T01:05:01.921Z,78.20
2018-11-07T01:06:01.889Z,78.20
2018-11-07T01:07:01.881Z,78.20
2018-11-07T01:08:01.867Z,78.61
2018-11-07T01:09:01.854Z,77.75
2018-11-07T01:10:01.864Z,77.34
2018-11-07T01:11:01.831Z,77.75
2018-11-07T01:12:01.819Z,77.55
2018-11-07T01:13:01.810Z,77.79
2018-11-07T01:14:01.795Z,77.55
2018-11-07T01:15:01.802Z,77.65
2018-11-07T01:16:01.773Z,77.65
2018-11-07T01:17:01.762Z,77.55
2018-11-07T01:18:01.748Z,77.75
2018-11-07T01:19:01.735Z,77.34
2018-11-07T01:20:01.754Z,77.25
2018-11-07T01:21:01.712Z,77.04
2018-11-07T01:22:01.703Z,77.34
2018-11-07T01:23:01.691Z,77.65
2018-11-07T01:24:01.678Z,77.65
2018-11-07T01:25:01.669Z,77.79
2018-11-07T01:26:01.675Z,77.59
2018-11-07T01:27:01.642Z,78.50
2018-11-07T01:28:01.670Z,78.50
2018-11-07T01:29:01.622Z,78.20
2018-11-07T01:30:01.610Z,78.61
2018-11-07T01:31:01.614Z,78.91
2018-11-07T01:32:01.584Z,78.81
2018-11-07T01:33:01.576Z,78.50
2018-11-07T01:34:01.562Z,78.41
2018-11-07T01:35:01.554Z,78.09
2018-11-07T01:36:01.560Z,77.69
2018-11-07T01:37:01.528Z,77.45
2018-11-07T01:38:01.520Z,76.93
2018-11-07T01:39:01.504Z,76.29
2018-11-07T01:40:01.491Z,75.98
2018-11-07T01:41:01.482Z,76.19
2018-11-07T01:42:01.525Z,76.39
2018-11-07T01:43:01.456Z,75.88
2018-11-07T01:44:01.447Z,75.98
2018-11-07T01:45:01.433Z,76.50
2018-11-07T01:46:01.422Z,76.50
2018-11-07T01:47:01.428Z,76.73
2018-11-07T01:48:01.398Z,76.73
2018-11-07T01:49:01.387Z,77.25
2018-11-07T01:50:01.380Z,77.34
2018-11-07T01:51:01.362Z,77.14
2018-11-07T01:52:01.370Z,77.14
2018-11-07T01:53:01.345Z,76.93
2018-11-07T01:54:01.327Z,77.00
2018-11-07T01:55:01.319Z,77.04
2018-11-07T01:56:01.306Z,77.14
2018-11-07T01:57:01.315Z,77.14
2018-11-07T01:58:01.282Z,76.84
2018-11-07T01:59:01.271Z,76.93
2018-11-07T02:00:01.259Z,76.80
2018-11-07T02:01:01.260Z,76.90
2018-11-07T02:02:01.236Z,76.90
2018-11-07T02:03:01.246Z,77.14
2018-11-07T02:04:01.211Z,77.14
2018-11-07T02:05:01.200Z,77.34
2018-11-07T02:06:01.189Z,77.65
2018-11-07T02:07:01.176Z,77.75
2018-11-07T02:08:08.212Z,77.79
2018-11-07T02:09:01.157Z,78.20
2018-11-07T02:10:01.143Z,78.61
2018-11-07T02:11:01.132Z,78.41
2018-11-07T02:12:01.116Z,78.20
2018-11-07T02:13:01.127Z,78.81
2018-11-07T02:14:01.093Z,78.64
2018-11-07T02:15:01.081Z,78.95
2018-11-07T02:16:01.072Z,79.25
2018-11-07T02:17:01.059Z,79.46
2018-11-07T02:18:01.076Z,79.05
2018-11-07T02:19:01.035Z,79.25
2018-11-07T02:20:01.026Z,78.85
2018-11-07T02:21:01.012Z,79.25
2018-11-07T02:22:01.005Z,79.36
2018-11-07T02:23:00.992Z,80.28
2018-11-07T02:24:00.997Z,80.18
2018-11-07T02:25:00.970Z,80.28
2018-11-07T02:26:00.966Z,79.87
2018-11-07T02:27:00.947Z,79.87
2018-11-07T02:28:00.930Z,79.57
2018-11-07T02:29:00.939Z,79.46
2018-11-07T02:30:00.907Z,80.18
2018-11-07T02:31:00.897Z,79.46
2018-11-07T02:32:00.883Z,80.07
2018-11-07T02:33:00.872Z,79.57
2018-11-07T02:34:00.887Z,79.57
2018-11-07T02:35:00.850Z,80.07
2018-11-07T02:36:00.837Z,80.21
2018-11-07T02:37:00.910Z,79.91
2018-11-07T02:38:00.814Z,80.32
2018-11-07T02:39:00.801Z,79.87
2018-11-07T02:40:00.811Z,80.11
2018-11-07T02:41:00.779Z,79.66
2018-11-07T02:42:00.847Z,79.66
2018-11-07T02:43:00.755Z,79.97
2018-11-07T02:44:00.743Z,79.87
2018-11-07T02:45:00.756Z,79.77
2018-11-07T02:46:00.721Z,79.46
2018-11-07T02:47:00.713Z,79.57
2018-11-07T02:48:00.697Z,79.60
2018-11-07T02:49:00.685Z,79.66
2018-11-07T02:50:00.693Z,79.97
2018-11-07T02:51:00.662Z,79.60
2018-11-07T02:52:00.653Z,79.60
2018-11-07T02:53:00.640Z,80.11
2018-11-07T02:54:00.626Z,80.11
2018-11-07T02:55:00.639Z,80.32
2018-11-07T02:56:00.603Z,80.21
2018-11-07T02:57:00.595Z,80.66
2018-11-07T02:58:00.578Z,80.52
2018-11-07T02:59:00.571Z,80.32
2018-11-07T03:00:00.555Z,80.62
2018-11-07T03:01:00.565Z,80.42
2018-11-07T03:02:00.531Z,80.76
2018-11-07T03:03:00.521Z,80.76
2018-11-07T03:04:00.513Z,80.73
2018-11-07T03:05:00.495Z,81.58
2018-11-07T03:06:00.503Z,81.27
2018-11-07T03:07:00.472Z,81.88
2018-11-07T03:08:00.460Z,81.93
2018-11-07T03:09:00.448Z,82.13
2018-11-07T03:10:00.468Z,81.93
2018-11-07T03:11:00.449Z,82.13
2018-11-07T03:12:00.412Z,81.93
2018-11-07T03:13:00.398Z,82.23
2018-11-07T03:14:00.388Z,82.23
2018-11-07T03:15:00.374Z,81.58
2018-11-07T03:16:00.360Z,81.99
2018-11-07T03:17:00.369Z,81.88
2018-11-07T03:18:00.338Z,82.34
2018-11-07T03:19:00.327Z,82.13
2018-11-07T03:20:00.316Z,82.03
2018-11-07T03:21:00.302Z,82.54
2018-11-07T03:22:00.312Z,82.23
2018-11-07T03:23:00.277Z,82.84
2018-11-07T03:24:00.263Z,83.05
2018-11-07T03:25:00.253Z,83.01
2018-11-07T03:26:00.242Z,82.95
2018-11-07T03:27:00.250Z,82.54
2018-11-07T03:28:00.217Z,82.13
2018-11-07T03:29:00.205Z,82.23
2018-11-07T03:30:00.195Z,82.13
2018-11-07T03:31:00.181Z,82.03
2018-11-07T03:32:00.195Z,82.54
2018-11-07T03:33:00.160Z,82.64
2018-11-07T03:34:00.143Z,82.23
2018-11-07T03:35:00.138Z,81.99
2018-11-07T03:36:00.122Z,81.48
2018-11-07T03:37:00.136Z,82.20
2018-11-07T03:38:00.097Z,81.48
2018-11-07T03:39:00.096Z,81.17
2018-11-07T03:40:00.075Z,81.27
2018-11-07T03:41:00.060Z,81.38
2018-11-07T03:42:00.048Z,81.88
2018-11-07T03:43:00.061Z,81.93
2018-11-07T03:44:00.026Z,82.23
2018-11-07T03:45:00.013Z,82.03
2018-11-07T03:46:00.015Z,82.13
2018-11-07T03:46:59.995Z,81.88
2018-11-07T03:47:59.976Z,81.10
2018-11-07T03:48:59.988Z,81.58
2018-11-07T03:49:59.957Z,81.48
2018-11-07T03:50:59.943Z,81.58
2018-11-07T03:51:59.929Z,81.48
2018-11-07T03:52:59.973Z,81.68
2018-11-07T03:53:59.925Z,81.68
2018-11-07T03:54:59.892Z,81.48
2018-11-07T03:55:59.883Z,81.58
2018-11-07T03:56:59.870Z,81.79
2018-11-07T03:57:59.859Z,81.48
2018-11-07T03:58:59.866Z,80.66
2018-11-07T03:59:59.834Z,80.66
2018-11-07T04:00:59.823Z,79.80
2018-11-07T04:01:59.809Z,79.60
2018-11-07T04:02:59.799Z,79.80
2018-11-07T04:03:59.805Z,79.70
2018-11-07T04:04:59.774Z,79.80
2018-11-07T04:05:59.762Z,79.80
2018-11-07T04:06:59.750Z,80.01
2018-11-07T04:07:59.739Z,79.60
2018-11-07T04:08:59.745Z,79.91
2018-11-07T04:09:59.717Z,80.11
2018-11-07T04:10:59.703Z,80.01
2018-11-07T04:11:59.689Z,79.60
2018-11-07T04:12:59.680Z,79.80
2018-11-07T04:13:59.686Z,80.35
2018-11-07T04:14:59.655Z,79.70
2018-11-07T04:15:59.642Z,80.11
2018-11-07T04:16:59.629Z,80.11
2018-11-07T04:17:59.619Z,79.80
2018-11-07T04:18:59.623Z,80.01
2018-11-07T04:19:59.594Z,79.91
2018-11-07T04:20:59.581Z,80.01
2018-11-07T04:21:59.569Z,79.80
2018-11-07T04:22:59.559Z,79.70
2018-11-07T04:23:59.575Z,79.80
2018-11-07T04:24:59.536Z,80.05
2018-11-07T04:25:59.524Z,79.84
2018-11-07T04:26:59.511Z,79.91
2018-11-07T04:27:59.500Z,79.74
2018-11-07T04:28:59.488Z,79.74
2018-11-07T04:29:59.496Z,79.64
2018-11-07T04:30:59.464Z,79.94
2018-11-07T04:32:00.033Z,80.01
2018-11-07T04:32:59.553Z,80.11
2018-11-07T04:33:59.433Z,79.94
2018-11-07T04:34:59.434Z,79.70
2018-11-07T04:35:59.404Z,80.05
2018-11-07T04:36:59.396Z,80.25
2018-11-07T04:37:59.382Z,80.15
2018-11-07T04:38:59.455Z,80.35
2018-11-07T04:39:59.390Z,80.35
2018-11-07T04:40:59.344Z,80.76
2018-11-07T04:41:59.337Z,80.76
2018-11-07T04:42:59.321Z,80.66
2018-11-07T04:43:59.313Z,80.56
2018-11-07T04:44:59.296Z,80.46
2018-11-07T04:45:59.303Z,80.35
2018-11-07T04:46:59.271Z,80.35
2018-11-07T04:47:59.259Z,80.66
2018-11-07T04:48:59.248Z,80.69
2018-11-07T04:49:59.235Z,80.87
2018-11-07T04:50:59.243Z,81.01
2018-11-07T04:51:59.210Z,80.90
2018-11-07T04:52:59.198Z,80.60
2018-11-07T04:53:59.187Z,81.01
2018-11-07T04:54:59.180Z,80.80
2018-11-07T04:55:59.180Z,80.90
2018-11-07T04:56:59.150Z,80.69
2018-11-07T04:57:59.137Z,81.01
2018-11-07T04:58:59.125Z,80.80
2018-11-07T04:59:59.147Z,80.60
2018-11-07T05:00:59.126Z,80.56
2018-11-07T05:01:59.099Z,80.60
2018-11-07T05:02:59.080Z,80.60
2018-11-07T05:03:59.066Z,80.90
2018-11-07T05:04:59.054Z,80.90
2018-11-07T05:05:59.042Z,81.62
2018-11-07T05:06:59.051Z,81.62
2018-11-07T05:07:59.019Z,81.62
2018-11-07T05:08:59.012Z,81.51
2018-11-07T05:09:58.995Z,81.45
2018-11-07T05:10:59.015Z,81.24
2018-11-07T05:11:58.989Z,81.45
2018-11-07T05:12:58.959Z,82.03
2018-11-07T05:13:58.948Z,81.96
2018-11-07T05:14:58.938Z,82.07
2018-11-07T05:15:58.924Z,82.17
2018-11-07T05:16:58.938Z,82.17
2018-11-07T05:17:58.903Z,82.17
2018-11-07T05:18:58.887Z,81.96
2018-11-07T05:19:58.880Z,82.37
2018-11-07T05:20:58.864Z,81.86
2018-11-07T05:21:58.853Z,82.07
2018-11-07T05:22:58.859Z,81.86
2018-11-07T05:23:58.827Z,81.76
2018-11-07T05:24:58.816Z,81.65
2018-11-07T05:25:58.810Z,81.65
2018-11-07T05:26:58.793Z,81.35
2018-11-07T05:27:58.798Z,81.35
2018-11-07T05:28:58.768Z,81.35
2018-11-07T05:29:58.755Z,81.56
2018-11-07T05:30:58.749Z,81.45
2018-11-07T05:31:58.758Z,81.45
2018-11-07T05:32:58.741Z,81.29
2018-11-07T05:33:58.708Z,81.29
2018-11-07T05:34:58.703Z,81.49
2018-11-07T05:35:58.684Z,81.49
2018-11-07T05:36:58.670Z,81.59
2018-11-07T05:37:58.677Z,81.70
2018-11-07T05:38:58.647Z,81.18
2018-11-07T05:39:58.634Z,81.24
2018-11-07T05:40:58.664Z,81.56
2018-11-07T05:41:58.610Z,81.04
2018-11-07T05:42:58.628Z,80.94
2018-11-07T05:43:58.587Z,80.53
2018-11-07T05:44:58.575Z,80.53
2018-11-07T05:45:58.566Z,80.88
2018-11-07T05:46:58.577Z,81.29
2018-11-07T05:47:58.538Z,81.70
2018-11-07T05:48:58.612Z,81.59
2018-11-07T05:49:58.515Z,81.79
2018-11-07T05:50:58.502Z,81.49
2018-11-07T05:51:58.491Z,81.90
2018-11-07T05:52:58.479Z,81.52
2018-11-07T05:53:58.488Z,82.04
2018-11-07T05:54:58.454Z,83.03
2018-11-07T05:55:58.442Z,82.55
2018-11-07T05:56:58.435Z,82.31
2018-11-07T05:57:58.420Z,82.00
2018-11-07T05:58:58.408Z,82.04
2018-11-07T05:59:58.415Z,82.00
2018-11-07T06:00:58.385Z,82.14
2018-11-07T06:01:58.375Z,81.73
2018-11-07T06:02:58.361Z,82.49
2018-11-07T06:03:58.349Z,82.90
2018-11-07T06:04:58.360Z,82.90
2018-11-07T06:05:58.328Z,83.06
2018-11-07T06:06:58.313Z,83.20
2018-11-07T06:07:58.309Z,82.86
2018-11-07T06:08:58.290Z,82.90
2018-11-07T06:09:58.312Z,82.90
2018-11-07T06:10:58.268Z,82.79
2018-11-07T06:11:58.254Z,82.18
2018-11-07T06:12:58.244Z,82.24
2018-11-07T06:13:58.232Z,82.69
2018-11-07T06:14:58.220Z,82.69
2018-11-07T06:15:58.267Z,82.79
2018-11-07T06:16:58.198Z,82.28
2018-11-07T06:17:58.185Z,82.28
2018-11-07T06:18:58.173Z,82.59
2018-11-07T06:19:58.160Z,82.69
2018-11-07T06:20:58.175Z,82.69
2018-11-07T06:21:58.138Z,83.00
2018-11-07T06:22:58.215Z,83.41
2018-11-07T06:23:58.114Z,85.56
2018-11-07T06:25:25.897Z,82.24
2018-11-07T06:26:25.869Z,82.04
2018-11-07T06:27:25.859Z,81.22
2018-11-07T06:28:25.845Z,81.52
2018-11-07T06:29:25.828Z,81.84
2018-11-07T06:30:25.817Z,81.36
2018-11-07T06:31:25.823Z,82.14
2018-11-07T06:32:25.792Z,82.18
2018-11-07T06:33:25.779Z,82.35
2018-11-07T06:34:25.769Z,82.28
2018-11-07T06:35:25.757Z,82.18
2018-11-07T06:36:25.770Z,82.24
2018-11-07T06:37:25.733Z,82.14
2018-11-07T06:38:25.721Z,82.49
2018-11-07T06:39:25.710Z,82.59
2018-11-07T06:40:25.699Z,83.31
2018-11-07T06:41:25.686Z,83.10
2018-11-07T06:42:25.700Z,82.39
2018-11-07T06:43:25.663Z,82.35
2018-11-07T06:44:25.673Z,82.04
2018-11-07T06:45:25.639Z,82.00
2018-11-07T06:46:25.628Z,81.08
2018-11-07T06:47:25.634Z,80.74
2018-11-07T06:48:25.603Z,80.02
2018-11-07T06:49:25.597Z,80.12
2018-11-07T06:50:25.581Z,79.82
2018-11-07T06:51:25.568Z,80.53
2018-11-07T06:52:25.574Z,80.12
2018-11-07T06:53:25.545Z,80.05
2018-11-07T06:54:25.532Z,79.71
2018-11-07T06:55:25.521Z,79.78
2018-11-07T06:56:25.508Z,79.61
2018-11-07T06:57:25.524Z,79.20
2018-11-07T06:58:25.485Z,79.91
2018-11-07T06:59:25.474Z,78.89
2018-11-07T07:00:25.464Z,80.22
2018-11-07T07:01:25.520Z,78.89
2018-11-07T07:02:25.438Z,79.50
2018-11-07T07:03:25.445Z,79.10
2018-11-07T07:04:25.415Z,80.12
2018-11-07T07:05:25.404Z,80.02
2018-11-07T07:06:25.391Z,80.05
2018-11-07T07:07:25.379Z,80.22
2018-11-07T07:08:25.385Z,79.75
2018-11-07T07:09:25.359Z,79.82
2018-11-07T07:10:25.343Z,81.29
2018-11-07T07:11:25.332Z,80.43
2018-11-07T07:12:25.319Z,81.01
2018-11-07T07:13:25.331Z,79.68
2018-11-07T07:14:25.300Z,78.34
2018-11-07T07:15:25.283Z,79.47
2018-11-07T07:16:25.275Z,78.55
2018-11-07T07:17:25.308Z,79.16
2018-11-07T07:18:25.250Z,78.86
2018-11-07T07:19:25.256Z,78.65
2018-11-07T07:20:25.232Z,78.59
2018-11-07T07:21:25.217Z,78.55
2018-11-07T07:22:25.202Z,78.28
2018-11-07T07:23:25.189Z,78.69
2018-11-07T07:24:25.196Z,78.38
2018-11-07T07:25:25.217Z,79.00
2018-11-07T07:26:25.161Z,79.50
2018-11-07T07:27:25.141Z,79.00
2018-11-07T07:28:25.137Z,78.89
2018-11-07T07:29:25.138Z,78.69
2018-11-07T07:30:25.152Z,78.38
2018-11-07T07:31:25.094Z,78.49
2018-11-07T07:32:25.090Z,78.45
2018-11-07T07:33:25.106Z,78.45
2018-11-07T07:34:25.092Z,78.89
2018-11-07T07:35:25.048Z,78.34
2018-11-07T07:36:25.035Z,78.38
2018-11-07T07:37:25.028Z,78.69
2018-11-07T07:38:25.011Z,79.20
2018-11-07T07:39:25.001Z,77.83
2018-11-07T07:40:25.006Z,78.04
2018-11-07T07:41:24.976Z,77.29
2018-11-07T07:42:24.963Z,77.08
2018-11-07T07:43:24.951Z,76.37
2018-11-07T07:44:24.941Z,77.04
2018-11-07T07:45:24.972Z,76.43
2018-11-07T07:46:24.917Z,76.12
2018-11-07T07:47:24.905Z,75.92
2018-11-07T07:48:24.899Z,75.55
2018-11-07T07:49:24.920Z,75.71
2018-11-07T07:50:24.868Z,74.87
2018-11-07T07:51:24.876Z,75.07
2018-11-07T07:52:24.860Z,75.07
2018-11-07T07:53:24.834Z,74.56
2018-11-07T07:54:24.823Z,74.35
2018-11-07T07:55:24.810Z,74.05
2018-11-07T07:56:24.820Z,73.50
2018-11-07T07:57:24.790Z,73.50
2018-11-07T07:58:24.773Z,72.45
2018-11-07T07:59:24.762Z,72.31
2018-11-07T08:00:24.751Z,71.15
2018-11-07T08:01:24.771Z,68.51
2018-11-07T08:02:24.727Z,67.66
2018-11-07T08:03:24.716Z,66.08
2018-11-07T08:04:24.705Z,66.08
2018-11-07T08:05:24.698Z,64.18
2018-11-07T08:06:24.681Z,62.20
2018-11-07T08:07:24.688Z,61.00
2018-11-07T08:08:24.659Z,58.78
2018-11-07T08:09:24.673Z,57.52
2018-11-07T08:10:24.674Z,55.11
2018-11-07T08:11:31.676Z,53.52
2018-11-07T08:12:24.613Z,52.69
2018-11-07T08:13:24.617Z,51.23
2018-11-07T08:14:24.591Z,51.03
2018-11-07T08:15:24.578Z,50.31
2018-11-07T08:16:24.570Z,49.57
2018-11-07T08:17:24.578Z,49.55
2018-11-07T08:18:24.546Z,48.55
2018-11-07T08:19:24.531Z,49.07
2018-11-07T08:20:24.528Z,49.45
2018-11-07T08:21:24.646Z,48.12
2018-11-07T08:22:24.518Z,47.54
2018-11-07T08:23:24.486Z,48.67
2018-11-07T08:24:24.478Z,48.12
2018-11-07T08:25:24.462Z,46.39
2018-11-07T08:26:24.451Z,46.80
2018-11-07T08:27:24.458Z,47.90
2018-11-07T08:28:24.430Z,45.95
2018-11-07T08:29:24.416Z,45.95
2018-11-07T08:30:24.405Z,45.53
2018-11-07T08:31:24.393Z,45.90
2018-11-07T08:32:24.402Z,45.42
2018-11-07T08:33:24.370Z,44.30
2018-11-07T08:34:24.359Z,45.95
2018-11-07T08:35:24.348Z,45.65
2018-11-07T08:36:24.336Z,45.83
2018-11-07T08:37:24.352Z,44.70
2018-11-07T08:38:24.312Z,43.96
2018-11-07T08:39:24.302Z,42.71
2018-11-07T08:40:24.293Z,43.01
2018-11-07T08:41:24.278Z,43.63
2018-11-07T08:42:24.430Z,44.48
2018-11-07T08:43:24.277Z,43.46
2018-11-07T08:44:24.243Z,43.96
2018-11-07T08:45:24.235Z,43.88
2018-11-07T08:46:24.221Z,44.28
2018-11-07T08:47:24.210Z,44.10
2018-11-07T08:48:24.218Z,43.98
2018-11-07T08:49:24.187Z,44.08
2018-11-07T08:50:24.179Z,43.88
2018-11-07T08:51:24.167Z,43.96
2018-11-07T08:52:24.153Z,43.32
2018-11-07T08:53:24.179Z,42.83
2018-11-07T08:54:24.132Z,42.54
2018-11-07T08:55:24.122Z,43.54
2018-11-07T08:56:24.114Z,43.04
2018-11-07T08:57:24.101Z,42.61
2018-11-07T08:58:24.091Z,43.54
2018-11-07T08:59:24.097Z,43.13
2018-11-07T09:00:24.067Z,43.38
2018-11-07T09:01:24.122Z,42.96
2018-11-07T09:02:24.046Z,43.35
2018-11-07T09:03:24.031Z,42.74
2018-11-07T09:04:24.038Z,42.63
2018-11-07T09:05:24.007Z,42.71
2018-11-07T09:06:23.995Z,41.39
2018-11-07T09:07:23.985Z,40.39
2018-11-07T09:08:23.973Z,41.61
2018-11-07T09:09:23.982Z,42.02
2018-11-07T09:10:23.952Z,41.60
2018-11-07T09:11:23.940Z,40.97
2018-11-07T09:12:23.927Z,40.67
2018-11-07T09:13:23.917Z,40.25
2018-11-07T09:14:23.935Z,40.12
2018-11-07T09:15:23.903Z,38.62
2018-11-07T09:16:23.885Z,39.02
2018-11-07T09:17:23.870Z,40.14
2018-11-07T09:18:23.860Z,40.25
2018-11-07T09:19:23.849Z,40.01
2018-11-07T09:20:23.856Z,38.67
2018-11-07T09:21:23.830Z,37.08
2018-11-07T09:22:23.813Z,38.62
2018-11-07T09:23:23.805Z,39.95
2018-11-07T09:24:23.862Z,40.25
2018-11-07T09:25:23.802Z,40.45
2018-11-07T09:26:23.769Z,39.78
2018-11-07T09:27:23.757Z,40.30
2018-11-07T09:28:23.749Z,40.17
2018-11-07T09:29:23.798Z,39.86
2018-11-07T09:30:23.747Z,39.12
2018-11-07T09:31:23.711Z,39.94
2018-11-07T09:32:23.700Z,38.29
2018-11-07T09:33:23.696Z,37.70
2018-11-07T09:34:23.680Z,38.54
2018-11-07T09:35:23.671Z,38.46
2018-11-07T09:36:23.675Z,40.37
2018-11-07T09:37:23.646Z,40.17
2018-11-07T09:38:23.633Z,38.44
2018-11-07T09:39:23.639Z,38.40
2018-11-07T09:40:23.611Z,38.18
2018-11-07T09:41:23.621Z,37.45
2018-11-07T09:42:23.592Z,37.27
2018-11-07T09:43:23.577Z,36.65
2018-11-07T09:44:23.566Z,36.67
2018-11-07T09:45:23.557Z,36.69
2018-11-07T09:46:23.563Z,37.23
2018-11-07T09:47:23.559Z,38.44
2018-11-07T09:48:23.677Z,37.70
2018-11-07T09:49:23.509Z,38.32
2018-11-07T09:50:23.499Z,38.12
2018-11-07T09:51:23.505Z,37.08
2018-11-07T09:52:23.476Z,37.52
2018-11-07T09:53:23.466Z,38.42
2018-11-07T09:54:23.508Z,38.22
2018-11-07T09:55:23.442Z,37.72
2018-11-07T09:56:23.459Z,37.90
2018-11-07T09:57:23.421Z,37.38
2018-11-07T09:58:23.409Z,37.47
2018-11-07T09:59:23.432Z,37.25
2018-11-07T10:00:23.388Z,36.16
2018-11-07T10:01:23.375Z,37.40
2018-11-07T10:02:23.386Z,38.09
2018-11-07T10:03:23.355Z,36.16
2018-11-07T10:04:23.341Z,35.72
2018-11-07T10:05:23.346Z,36.54
2018-11-07T10:06:23.365Z,36.57
2018-11-07T10:07:23.331Z,38.00
2018-11-07T10:08:23.298Z,38.48
2018-11-07T10:09:23.286Z,38.44
2018-11-07T10:10:23.276Z,37.51
2018-11-07T10:11:23.265Z,38.09
2018-11-07T10:12:23.266Z,37.02
2018-11-07T10:13:23.261Z,38.02
2018-11-07T10:14:23.231Z,37.01
2018-11-07T10:15:23.219Z,36.57
2018-11-07T10:16:23.209Z,36.18
2018-11-07T10:17:23.197Z,36.27
2018-11-07T10:18:23.205Z,36.18
2018-11-07T10:19:23.175Z,36.37
2018-11-07T10:20:23.167Z,36.49
2018-11-07T10:21:23.152Z,36.27
2018-11-07T10:22:23.140Z,35.97
2018-11-07T10:23:23.151Z,35.66
2018-11-07T10:24:23.123Z,36.05
2018-11-07T10:25:23.114Z,36.77
2018-11-07T10:26:23.096Z,36.85
2018-11-07T10:27:23.423Z,35.91
2018-11-07T10:28:23.302Z,34.52
2018-11-07T10:29:23.465Z,36.24
2018-11-07T10:30:23.232Z,35.31
2018-11-07T10:31:23.041Z,34.61
2018-11-07T10:32:23.031Z,35.06
2018-11-07T10:33:23.043Z,36.46
2018-11-07T10:34:23.013Z,36.14
2018-11-07T10:35:22.998Z,35.92
2018-11-07T10:36:22.986Z,35.42
2018-11-07T10:37:32.257Z,34.88
2018-11-07T10:38:23.042Z,34.17
2018-11-07T10:39:22.977Z,35.11
2018-11-07T10:40:22.942Z,35.42
2018-11-07T10:41:22.929Z,35.34
2018-11-07T10:42:22.919Z,36.07
2018-11-07T10:43:22.907Z,35.88
2018-11-07T10:44:22.974Z,35.97
2018-11-07T10:45:22.887Z,35.56
2018-11-07T10:46:22.874Z,35.24
2018-11-07T10:47:22.861Z,34.81
2018-11-07T10:48:22.852Z,34.71
2018-11-07T10:49:22.840Z,34.66
2018-11-07T10:50:22.846Z,33.75
2018-11-07T10:51:22.818Z,34.08
2018-11-07T10:52:22.812Z,34.17
2018-11-07T10:53:22.795Z,33.34
2018-11-07T10:54:22.785Z,33.64
2018-11-07T10:55:22.794Z,35.34
2018-11-07T10:56:22.762Z,34.25
2018-11-07T10:57:22.751Z,34.05
2018-11-07T10:58:22.740Z,35.22
2018-11-07T10:59:22.730Z,35.69
2018-11-07T11:00:22.734Z,37.64
2018-11-07T11:01:22.706Z,38.57
2018-11-07T11:02:22.694Z,38.56
2018-11-07T11:03:22.683Z,38.16
2018-11-07T11:04:22.676Z,38.29
2018-11-07T11:05:22.719Z,38.83
2018-11-07T11:06:22.656Z,40.47
2018-11-07T11:07:22.644Z,41.29
2018-11-07T11:08:22.627Z,41.74
2018-11-07T11:09:22.617Z,42.83
2018-11-07T11:10:22.627Z,42.10
2018-11-07T11:11:22.659Z,38.78
2018-11-07T11:12:22.582Z,37.74
2018-11-07T11:13:22.571Z,35.69
2018-11-07T11:14:22.559Z,35.36
2018-11-07T11:15:22.549Z,35.86
2018-11-07T11:16:22.556Z,34.94
2018-11-07T11:17:22.560Z,34.64
2018-11-07T11:18:22.519Z,34.83
2018-11-07T11:19:22.502Z,35.11
2018-11-07T11:20:22.491Z,35.03
2018-11-07T11:21:22.499Z,34.63
2018-11-07T11:22:22.471Z,34.91
2018-11-07T11:23:22.458Z,34.52
2018-11-07T11:24:22.446Z,34.71
2018-11-07T11:25:22.434Z,34.73
2018-11-07T11:26:22.445Z,35.21
2018-11-07T11:27:22.512Z,34.71
2018-11-07T11:28:22.403Z,35.01
2018-11-07T11:29:22.389Z,34.81
2018-11-07T11:30:22.378Z,34.99
2018-11-07T11:31:22.390Z,34.50
2018-11-07T11:32:22.355Z,35.13
2018-11-07T11:33:22.345Z,35.16
2018-11-07T11:34:22.347Z,35.66
2018-11-07T11:35:22.402Z,35.84
2018-11-07T11:36:22.310Z,35.44
2018-11-07T11:37:22.317Z,35.86
2018-11-07T11:38:22.290Z,36.21
2018-11-07T11:39:22.278Z,37.82
2018-11-07T11:40:22.265Z,37.64
2018-11-07T11:41:22.255Z,38.20
2018-11-07T11:42:22.263Z,39.73
2018-11-07T11:43:22.232Z,39.01
2018-11-07T11:44:22.222Z,40.25
2018-11-07T11:45:22.210Z,40.65
2018-11-07T11:46:22.197Z,38.93
2018-11-07T11:47:22.205Z,38.91
2018-11-07T11:48:22.176Z,38.81
2018-11-07T11:49:22.208Z,38.36
2018-11-07T11:50:22.154Z,37.51
2018-11-07T11:51:22.141Z,35.88
2018-11-07T11:52:22.153Z,35.94
2018-11-07T11:53:22.120Z,34.91
2018-11-07T11:54:22.109Z,34.41
2018-11-07T11:55:22.101Z,34.71
2018-11-07T11:56:22.086Z,33.90
2018-11-07T11:57:22.093Z,34.08
2018-11-07T11:58:22.066Z,34.48
2018-11-07T11:59:22.186Z,35.97
2018-11-07T12:00:22.082Z,37.92
2018-11-07T12:01:22.033Z,38.18
2018-11-07T12:02:22.145Z,40.25
2018-11-07T12:03:22.006Z,41.60
2018-11-07T12:04:21.995Z,42.41
2018-11-07T12:05:21.984Z,42.74
2018-11-07T12:06:22.014Z,42.52
2018-11-07T12:07:21.964Z,41.05
2018-11-07T12:08:21.977Z,39.09
2018-11-07T12:09:21.938Z,37.74
2018-11-07T12:10:21.930Z,36.94
2018-11-07T12:11:21.915Z,38.64
2018-11-07T12:12:21.903Z,37.32
2018-11-07T12:13:21.994Z,37.01
2018-11-07T12:14:21.881Z,36.47
2018-11-07T12:15:21.968Z,36.04
2018-11-07T12:16:21.857Z,36.76
2018-11-07T12:17:21.851Z,36.55
2018-11-07T12:18:21.854Z,35.63
2018-11-07T12:19:21.824Z,36.25
2018-11-07T12:20:21.815Z,36.02
2018-11-07T12:21:21.916Z,34.38
2018-11-07T12:22:21.792Z,35.27
2018-11-07T12:23:21.801Z,34.38
2018-11-07T12:24:21.770Z,34.98
2018-11-07T12:25:21.757Z,35.59
2018-11-07T12:26:21.746Z,35.50
2018-11-07T12:27:21.738Z,35.31
2018-11-07T12:28:21.753Z,35.63
2018-11-07T12:29:21.713Z,35.94
2018-11-07T12:30:21.702Z,35.75
2018-11-07T12:31:21.690Z,36.07
2018-11-07T12:32:21.680Z,37.67
2018-11-07T12:33:21.668Z,36.76
2018-11-07T12:34:21.676Z,36.67
2018-11-07T12:35:21.649Z,36.47
2018-11-07T12:36:21.676Z,37.27
2018-11-07T12:37:21.622Z,38.10
2018-11-07T12:38:21.612Z,38.46
2018-11-07T12:39:21.620Z,40.11
2018-11-07T12:40:21.593Z,40.87
2018-11-07T12:41:21.577Z,41.57
2018-11-07T12:42:21.566Z,40.73
2018-11-07T12:43:21.554Z,38.78
2018-11-07T12:44:21.574Z,37.84
2018-11-07T12:45:21.536Z,37.32
2018-11-07T12:46:21.524Z,37.92
2018-11-07T12:47:21.511Z,38.54
2018-11-07T12:48:21.497Z,38.14
2018-11-07T12:49:21.484Z,38.38
2018-11-07T12:50:21.682Z,38.49
2018-11-07T12:51:21.463Z,38.14
2018-11-07T12:52:21.451Z,37.38